createdAt,value
2018-04-23T00:01:42.031Z,98878.56
2018-04-23T00:04:09.849Z,98876.52
2018-04-23T00:06:37.544Z,98874.97
2018-04-23T00:09:05.386Z,98879.13
2018-04-23T00:11:32.960Z,98883.03
2018-04-23T00:14:00.602Z,98877.08
2018-04-23T00:16:28.165Z,98884.56
2018-04-23T00:18:55.705Z,98883.69
2018-04-23T00:21:23.476Z,98879.34
2018-04-23T00:23:51.296Z,98882.94
2018-04-23T00:26:18.978Z,98880.90
2018-04-23T00:28:46.532Z,98882.70
2018-04-23T00:31:14.092Z,98883.92
2018-04-23T00:33:41.828Z,98885.62
2018-04-23T00:36:09.432Z,98891.91
2018-04-23T00:38:36.989Z,98893.83
2018-04-23T00:41:04.540Z,98894.79
2018-04-23T00:43:32.109Z,98890.70
2018-04-23T00:45:59.664Z,98892.12
2018-04-23T00:48:27.365Z,98893.63
2018-04-23T00:50:54.934Z,98890.41
2018-04-23T00:53:34.376Z,98888.42
2018-04-23T00:56:01.913Z,98888.27
2018-04-23T00:58:29.496Z,98887.03
2018-04-23T01:00:57.075Z,98886.91
2018-04-23T01:03:24.640Z,98883.66
2018-04-23T01:05:52.274Z,98889.01
2018-04-23T01:08:19.961Z,98886.55
2018-04-23T01:10:47.518Z,98883.68
2018-04-23T01:13:15.267Z,98891.81
2018-04-23T01:15:42.887Z,98893.31
2018-04-23T01:18:10.528Z,98895.11
2018-04-23T01:20:38.248Z,98890.36
2018-04-23T01:23:05.808Z,98893.63
2018-04-23T01:25:33.384Z,98896.91
2018-04-23T01:28:00.936Z,98895.87
2018-04-23T01:30:28.496Z,98891.75
2018-04-23T01:32:56.062Z,98895.27
2018-04-23T01:35:23.742Z,98894.66
2018-04-23T01:37:51.352Z,98892.41
2018-04-23T01:40:19.093Z,98891.69
2018-04-23T01:42:46.910Z,98893.47
2018-04-23T01:45:14.483Z,98893.05
2018-04-23T01:47:42.061Z,98892.66
2018-04-23T01:50:09.841Z,98892.19
2018-04-23T01:52:37.392Z,98888.14
2018-04-23T01:55:04.964Z,98892.73
2018-04-23T01:57:32.518Z,98890.73
2018-04-23T02:00:00.486Z,98897.98
2018-04-23T02:02:28.082Z,98895.64
2018-04-23T02:04:55.864Z,98897.77
2018-04-23T02:07:23.442Z,98902.04
2018-04-23T02:09:51.066Z,98900.47
2018-04-23T02:12:18.640Z,98894.34
2018-04-23T02:14:46.447Z,98897.70
2018-04-23T02:17:13.997Z,98899.80
2018-04-23T02:19:41.561Z,98895.29
2018-04-23T02:22:09.179Z,98907.39
2018-04-23T02:24:36.899Z,98903.36
2018-04-23T02:27:04.494Z,98905.45
2018-04-23T02:29:32.048Z,98907.31
2018-04-23T02:31:59.598Z,98905.47
2018-04-23T02:34:27.171Z,98901.36
2018-04-23T02:36:54.731Z,98897.27
2018-04-23T02:39:22.292Z,98898.91
2018-04-23T02:41:49.857Z,98895.15
2018-04-23T02:44:17.410Z,98900.70
2018-04-23T02:46:44.969Z,98899.40
2018-04-23T02:49:12.530Z,98901.03
2018-04-23T02:51:40.313Z,98899.14
2018-04-23T02:54:07.864Z,98894.97
2018-04-23T02:56:35.541Z,98901.94
2018-04-23T02:59:03.111Z,98909.23
2018-04-23T03:01:30.666Z,98903.88
2018-04-23T03:03:58.451Z,98908.81
2018-04-23T03:06:26.013Z,98908.59
2018-04-23T03:08:53.580Z,98907.70
2018-04-23T03:11:21.145Z,98906.39
2018-04-23T03:13:48.875Z,98909.41
2018-04-23T03:16:16.450Z,98906.55
2018-04-23T03:18:44.216Z,98906.83
2018-04-23T03:21:11.790Z,98915.19
2018-04-23T03:23:39.354Z,98913.34
2018-04-23T03:26:07.165Z,98918.48
2018-04-23T03:28:34.984Z,98918.06
2018-04-23T03:31:02.592Z,98917.79
2018-04-23T03:33:30.163Z,98917.45
2018-04-23T03:35:57.705Z,98921.14
2018-04-23T03:38:25.256Z,98924.31
2018-04-23T03:40:52.828Z,98923.69
2018-04-23T03:43:20.501Z,98923.46
2018-04-23T03:45:48.425Z,98925.73
2018-04-23T03:48:15.984Z,98936.83
2018-04-23T03:50:43.745Z,98926.75
2018-04-23T03:53:11.565Z,98937.21
2018-04-23T03:55:39.197Z,98935.77
2018-04-23T03:58:07.002Z,98931.39
2018-04-23T04:00:34.564Z,98937.05
2018-04-23T04:03:02.127Z,98939.33
2018-04-23T04:05:29.955Z,98944.80
2018-04-23T04:07:57.512Z,98941.31
2018-04-23T04:10:25.291Z,98942.52
2018-04-23T04:13:04.952Z,98940.09
2018-04-23T04:15:44.414Z,98943.67
2018-04-23T04:21:13.753Z,98950.98
2018-04-23T04:23:41.488Z,98955.47
2018-04-23T04:26:09.046Z,98946.36
2018-04-23T04:28:36.823Z,98952.30
2018-04-23T04:31:04.643Z,98958.48
2018-04-23T04:33:32.256Z,98952.35
2018-04-23T04:35:59.809Z,98961.45
2018-04-23T04:38:27.594Z,98954.58
2018-04-23T04:40:55.208Z,98959.47
2018-04-23T04:43:22.764Z,98961.21
2018-04-23T04:45:50.445Z,98964.63
2018-04-23T04:48:18.000Z,98963.45
2018-04-23T04:50:45.786Z,98963.30
2018-04-23T04:53:13.390Z,98964.64
2018-04-23T04:55:41.121Z,98967.16
2018-04-23T04:58:08.693Z,98965.97
2018-04-23T05:00:36.257Z,98968.35
2018-04-23T05:03:04.075Z,98970.02
2018-04-23T05:05:31.697Z,98976.08
2018-04-23T05:07:59.266Z,98976.30
2018-04-23T05:10:26.844Z,98977.36
2018-04-23T05:12:54.421Z,98968.14
2018-04-23T05:15:22.040Z,98969.00
2018-04-23T05:17:49.636Z,98968.45
2018-04-23T05:20:17.193Z,98963.97
2018-04-23T05:22:44.769Z,98964.47
2018-04-23T05:25:12.536Z,98967.70
2018-04-23T05:27:40.128Z,98971.22
2018-04-23T05:30:07.707Z,98972.00
2018-04-23T05:32:35.332Z,98964.02
2018-04-23T05:35:02.897Z,98967.92
2018-04-23T05:37:30.466Z,98965.22
2018-04-23T05:39:58.044Z,98963.58
2018-04-23T05:42:25.605Z,98973.98
2018-04-23T05:44:53.172Z,98980.14
2018-04-23T05:47:20.738Z,98973.26
2018-04-23T05:49:48.359Z,98971.37
2018-04-23T05:52:15.925Z,98968.69
2018-04-23T05:54:43.504Z,98978.63
2018-04-23T05:57:11.232Z,98975.12
2018-04-23T05:59:38.949Z,98967.37
2018-04-23T06:02:06.529Z,98971.54
2018-04-23T06:04:34.313Z,98965.84
2018-04-23T06:07:01.963Z,98968.56
2018-04-23T06:09:29.657Z,98964.55
2018-04-23T06:11:57.217Z,98970.44
2018-04-23T06:14:24.841Z,98971.91
2018-04-23T06:16:52.378Z,98973.23
2018-04-23T06:19:20.028Z,98976.23
2018-04-23T06:21:47.604Z,98970.75
2018-04-23T06:24:15.465Z,98976.92
2018-04-23T06:26:43.017Z,98976.53
2018-04-23T06:29:10.580Z,98978.31
2018-04-23T06:31:38.185Z,98969.61
2018-04-23T06:34:05.745Z,98976.20
2018-04-23T06:36:33.345Z,98970.96
2018-04-23T06:39:00.883Z,98971.24
2018-04-23T06:41:28.496Z,98981.19
2018-04-23T06:43:56.085Z,98980.92
2018-04-23T06:46:23.884Z,98976.36
2018-04-23T06:48:51.644Z,98980.24
2018-04-23T06:51:19.213Z,98982.64
2018-04-23T06:53:46.780Z,98979.08
2018-04-23T06:56:14.382Z,98986.42
2018-04-23T06:58:42.007Z,98987.37
2018-04-23T07:01:09.749Z,98987.91
2018-04-23T07:03:37.454Z,98990.44
2018-04-23T07:06:05.036Z,98992.40
2018-04-23T07:08:32.759Z,98984.53
2018-04-23T07:11:00.320Z,98995.86
2018-04-23T07:13:27.876Z,98985.92
2018-04-23T07:15:55.766Z,98995.52
2018-04-23T07:18:23.681Z,98983.77
2018-04-23T07:20:51.240Z,98994.25
2018-04-23T07:23:18.999Z,98997.54
2018-04-23T07:25:46.560Z,99001.44
2018-04-23T07:28:14.124Z,98996.00
2018-04-23T07:30:41.693Z,98998.39
2018-04-23T07:33:09.300Z,98994.40
2018-04-23T07:35:36.867Z,98995.91
2018-04-23T07:38:04.584Z,98995.30
2018-04-23T07:40:32.301Z,99003.69
2018-04-23T07:42:59.863Z,98998.41
2018-04-23T07:45:27.432Z,98997.38
2018-04-23T07:47:55.238Z,99000.91
2018-04-23T07:50:22.877Z,98993.73
2018-04-23T07:52:50.434Z,98992.33
2018-04-23T07:55:18.022Z,98992.58
2018-04-23T07:57:45.569Z,98994.48
2018-04-23T08:00:13.114Z,98994.56
2018-04-23T08:02:40.887Z,98985.27
2018-04-23T08:05:08.449Z,98987.94
2018-04-23T08:07:36.072Z,98987.97
2018-04-23T08:10:03.691Z,98987.78
2018-04-23T08:12:31.236Z,98986.17
2018-04-23T08:14:58.796Z,98975.83
2018-04-23T08:17:26.359Z,98976.63
2018-04-23T08:19:53.940Z,98976.48
2018-04-23T08:22:21.739Z,98975.84
2018-04-23T08:24:49.548Z,98971.17
2018-04-23T08:27:17.116Z,98968.13
2018-04-23T08:29:44.676Z,98966.47
2018-04-23T08:32:12.272Z,98961.97
2018-04-23T08:34:39.980Z,98957.78
2018-04-23T08:37:07.694Z,98963.98
2018-04-23T08:39:35.322Z,98968.59
2018-04-23T08:42:03.177Z,98961.53
2018-04-23T08:44:30.894Z,98963.08
2018-04-23T08:46:58.449Z,98960.64
2018-04-23T08:49:26.121Z,98953.28
2018-04-23T08:51:53.676Z,98956.20
2018-04-23T08:54:21.244Z,98952.20
2018-04-23T08:56:48.985Z,98954.30
2018-04-23T08:59:16.603Z,98949.86
2018-04-23T09:01:44.157Z,98944.58
2018-04-23T09:04:11.716Z,98943.17
2018-04-23T09:06:39.264Z,98939.92
2018-04-23T09:09:06.819Z,98938.72
2018-04-23T09:11:34.376Z,98935.93
2018-04-23T09:14:01.928Z,98934.18
2018-04-23T09:16:29.728Z,98934.77
2018-04-23T09:18:57.414Z,98928.49
2018-04-23T09:21:24.978Z,98930.47
2018-04-23T09:23:52.781Z,98929.13
2018-04-23T09:26:20.339Z,98926.20
2018-04-23T09:28:48.118Z,98927.18
2018-04-23T09:31:15.835Z,98927.44
2018-04-23T09:33:43.653Z,98915.62
2018-04-23T09:36:11.219Z,98921.63
2018-04-23T09:38:38.788Z,98917.48
2018-04-23T09:41:06.608Z,98918.44
2018-04-23T09:43:34.165Z,98915.45
2018-04-23T09:46:01.740Z,98910.37
2018-04-23T09:48:29.344Z,98915.18
2018-04-23T09:50:57.181Z,98915.65
2018-04-23T09:53:24.736Z,98910.30
2018-04-23T09:55:52.518Z,98904.79
2018-04-23T09:58:20.337Z,98909.06
2018-04-23T10:00:48.054Z,98897.77
2018-04-23T10:03:15.676Z,98903.72
2018-04-23T10:05:43.241Z,98902.54
2018-04-23T10:08:11.011Z,98894.20
2018-04-23T10:10:38.827Z,98896.42
2018-04-23T10:13:06.546Z,98894.64
2018-04-23T10:15:34.368Z,98889.41
2018-04-23T10:18:01.925Z,98886.89
2018-04-23T10:20:29.489Z,98891.25
2018-04-23T10:22:57.075Z,98887.67
2018-04-23T10:25:24.625Z,98882.98
2018-04-23T10:27:52.191Z,98884.02
2018-04-23T10:30:19.971Z,98884.77
2018-04-23T10:32:47.580Z,98881.12
2018-04-23T10:35:15.308Z,98876.31
2018-04-23T10:37:42.875Z,98881.55
2018-04-23T10:40:10.646Z,98885.44
2018-04-23T10:42:38.469Z,98884.31
2018-04-23T10:45:06.070Z,98883.77
2018-04-23T10:47:33.891Z,98883.68
2018-04-23T10:50:01.521Z,98875.19
2018-04-23T10:52:29.219Z,98875.05
2018-04-23T10:54:56.954Z,98878.30
2018-04-23T10:57:24.802Z,98870.90
2018-04-23T10:59:52.701Z,98872.91
2018-04-23T11:02:20.312Z,98874.22
2018-04-23T11:04:48.021Z,98870.30
2018-04-23T11:07:15.738Z,98864.86
2018-04-23T11:09:43.412Z,98871.59
2018-04-23T11:12:11.074Z,98860.98
2018-04-23T11:14:38.801Z,98865.95
2018-04-23T11:17:06.395Z,98860.23
2018-04-23T11:19:34.027Z,98861.73
2018-04-23T11:22:01.756Z,98860.56
2018-04-23T11:24:29.365Z,98861.47
2018-04-23T11:26:56.948Z,98859.59
2018-04-23T11:29:24.674Z,98855.06
2018-04-23T11:31:52.240Z,98861.44
2018-04-23T11:34:19.935Z,98856.08
2018-04-23T11:36:47.531Z,98845.91
2018-04-23T11:39:15.096Z,98851.94
2018-04-23T11:41:42.920Z,98857.22
2018-04-23T11:44:10.720Z,98854.94
2018-04-23T11:46:38.292Z,98856.15
2018-04-23T11:49:06.033Z,98855.45
2018-04-23T11:51:33.624Z,98854.20
2018-04-23T11:54:01.272Z,98849.87
2018-04-23T11:56:29.010Z,98847.99
2018-04-23T11:58:56.711Z,98855.05
2018-04-23T12:01:24.408Z,98845.09
2018-04-23T12:03:51.949Z,98844.47
2018-04-23T12:06:19.781Z,98851.86
2018-04-23T12:08:47.385Z,98839.75
2018-04-23T12:11:15.203Z,98836.46
2018-04-23T12:13:42.829Z,98826.97
2018-04-23T12:16:10.707Z,98837.05
2018-04-23T12:18:38.476Z,98836.33
2018-04-23T12:21:06.081Z,98829.74
2018-04-23T12:23:33.708Z,98829.50
2018-04-23T12:26:01.270Z,98825.60
2018-04-23T12:28:28.892Z,98828.36
2018-04-23T12:30:56.664Z,98823.45
2018-04-23T12:33:24.220Z,98832.42
2018-04-23T12:35:51.781Z,98826.39
2018-04-23T12:38:19.375Z,98834.88
2018-04-23T12:40:47.005Z,98827.23
2018-04-23T12:43:14.753Z,98818.08
2018-04-23T12:45:42.308Z,98822.66
2018-04-23T12:48:09.876Z,98816.45
2018-04-23T12:50:37.592Z,98817.43
2018-04-23T12:53:05.282Z,98817.99
2018-04-23T12:55:33.157Z,98817.45
2018-04-23T12:58:00.800Z,98817.02
2018-04-23T13:00:28.583Z,98808.98
2018-04-23T13:02:56.153Z,98809.80
2018-04-23T13:05:23.728Z,98808.15
2018-04-23T13:07:51.280Z,98811.97
2018-04-23T13:10:19.029Z,98807.55
2018-04-23T13:12:46.574Z,98796.11
2018-04-23T13:15:14.178Z,98798.31
2018-04-23T13:17:41.737Z,98807.42
2018-04-23T13:20:09.527Z,98807.42
2018-04-23T13:22:37.343Z,98800.53
2018-04-23T13:25:05.089Z,98796.25
2018-04-23T13:27:32.880Z,98796.25
2018-04-23T13:30:00.473Z,98799.82
2018-04-23T13:32:28.281Z,98791.52
2018-04-23T13:34:56.098Z,98792.02
2018-04-23T13:37:23.690Z,98799.61
2018-04-23T13:39:51.257Z,98796.47
2018-04-23T13:42:18.821Z,98793.69
2018-04-23T13:44:46.405Z,98793.27
2018-04-23T13:47:13.960Z,98792.08
2018-04-23T13:49:41.767Z,98788.20
2018-04-23T13:52:09.328Z,98786.48
2018-04-23T13:54:36.880Z,98791.14
2018-04-23T13:57:04.705Z,98784.42
2018-04-23T13:59:32.279Z,98791.79
2018-04-23T14:01:59.844Z,98791.15
2018-04-23T14:04:27.404Z,98794.22
2018-04-23T14:06:55.075Z,98790.72
2018-04-23T14:09:22.895Z,98787.03
2018-04-23T14:11:50.717Z,98798.52
2018-04-23T14:14:18.283Z,98779.61
2018-04-23T14:16:45.844Z,98789.67
2018-04-23T14:19:13.393Z,98786.22
2018-04-23T14:21:40.963Z,98790.67
2018-04-23T14:24:08.581Z,98793.18
2018-04-23T14:26:36.141Z,98787.50
2018-04-23T14:29:03.678Z,98788.71
2018-04-23T14:31:31.252Z,98791.13
2018-04-23T14:33:58.974Z,98785.84
2018-04-23T14:36:26.608Z,98781.27
2018-04-23T14:38:54.164Z,98786.03
2018-04-23T14:41:21.915Z,98786.51
2018-04-23T14:43:49.627Z,98781.29
2018-04-23T14:46:17.185Z,98783.13
2018-04-23T14:48:44.989Z,98784.81
2018-04-23T14:51:12.543Z,98782.44
2018-04-23T14:53:40.100Z,98780.69
2018-04-23T14:56:07.817Z,98781.74
2018-04-23T14:58:35.424Z,98783.33
2018-04-23T15:01:03.182Z,98782.70
2018-04-23T15:03:30.964Z,98774.20
2018-04-23T15:05:58.710Z,98780.34
2018-04-23T15:08:26.427Z,98774.72
2018-04-23T15:10:53.998Z,98783.61
2018-04-23T15:13:21.533Z,98785.88
2018-04-23T15:15:49.261Z,98780.11
2018-04-23T15:18:16.819Z,98778.98
2018-04-23T15:20:44.523Z,98773.84
2018-04-23T15:23:12.159Z,98776.20
2018-04-23T15:25:39.952Z,98777.07
2018-04-23T15:28:07.520Z,98771.62
2018-04-23T15:30:35.174Z,98772.69
2018-04-23T15:33:02.728Z,98770.88
2018-04-23T15:35:30.315Z,98771.92
2018-04-23T15:37:58.041Z,98771.92
2018-04-23T15:40:25.860Z,98769.65
2018-04-23T15:42:53.420Z,98775.09
2018-04-23T15:45:20.983Z,98771.96
2018-04-23T15:47:48.544Z,98777.86
2018-04-23T15:50:16.097Z,98784.04
2018-04-23T15:52:44.003Z,98780.06
2018-04-23T15:55:11.558Z,98786.30
2018-04-23T15:57:39.264Z,98780.58
2018-04-23T16:00:06.890Z,98782.24
2018-04-23T16:02:34.443Z,98784.55
2018-04-23T16:05:02.242Z,98784.77
2018-04-23T16:07:29.851Z,98782.67
2018-04-23T16:09:57.492Z,98785.11
2018-04-23T16:12:25.045Z,98784.14
2018-04-23T16:14:52.609Z,98782.23
2018-04-23T16:17:20.176Z,98798.52
2018-04-23T16:19:47.728Z,98797.33
2018-04-23T16:22:15.567Z,98798.38
2018-04-23T16:24:43.286Z,98800.01
2018-04-23T16:27:10.836Z,98799.73
2018-04-23T16:29:38.414Z,98806.37
2018-04-23T16:32:05.972Z,98796.37
2018-04-23T16:34:33.541Z,98795.81
2018-04-23T16:37:01.168Z,98802.48
2018-04-23T16:39:28.993Z,98800.89
2018-04-23T16:41:56.714Z,98802.61
2018-04-23T16:44:27.167Z,98803.19
2018-04-23T16:46:51.865Z,98800.75
2018-04-23T16:49:19.435Z,98797.28
2018-04-23T16:51:47.009Z,98800.94
2018-04-23T16:54:14.600Z,98803.76
2018-04-23T16:56:42.291Z,98804.03
2018-04-23T16:59:09.844Z,98804.05
2018-04-23T17:01:37.659Z,98808.06
2018-04-23T17:04:05.233Z,98811.82
2018-04-23T17:06:32.785Z,98812.06
2018-04-23T17:09:00.368Z,98811.49
2018-04-23T17:11:28.228Z,98815.50
2018-04-23T17:13:55.844Z,98817.44
2018-04-23T17:16:23.451Z,98819.20
2018-04-23T17:18:51.073Z,98820.64
2018-04-23T17:21:18.645Z,98825.33
2018-04-23T17:23:46.200Z,98823.34
2018-04-23T17:26:13.768Z,98828.55
2018-04-23T17:28:41.332Z,98830.62
2018-04-23T17:31:09.172Z,98828.22
2018-04-23T17:33:36.782Z,98834.36
2018-04-23T17:36:04.385Z,98835.84
2018-04-23T17:38:31.957Z,98841.89
2018-04-23T17:40:59.568Z,98842.87
2018-04-23T17:43:27.373Z,98849.41
2018-04-23T17:45:55.070Z,98850.95
2018-04-23T17:48:22.688Z,98842.25
2018-04-23T17:50:50.417Z,98858.86
2018-04-23T17:53:18.136Z,98859.19
2018-04-23T17:55:45.751Z,98862.46
2018-04-23T17:58:13.473Z,98858.58
2018-04-23T18:00:41.291Z,98871.53
2018-04-23T18:03:08.888Z,98873.39
2018-04-23T18:05:36.545Z,98865.66
2018-04-23T18:08:04.166Z,98866.27
2018-04-23T18:10:31.754Z,98877.88
2018-04-23T18:12:59.332Z,98877.55
2018-04-23T18:15:26.932Z,98878.89
2018-04-23T18:17:54.568Z,98880.01
2018-04-23T18:20:22.166Z,98884.34
2018-04-23T18:22:49.764Z,98885.86
2018-04-23T18:25:17.348Z,98885.64
2018-04-23T18:27:44.904Z,98887.46
2018-04-23T18:30:12.488Z,98886.95
2018-04-23T18:32:40.061Z,98892.14
2018-04-23T18:35:07.750Z,98894.97
2018-04-23T18:37:35.293Z,98893.66
2018-04-23T18:40:02.863Z,98894.83
2018-04-23T18:42:30.424Z,98894.11
2018-04-23T18:44:57.988Z,98898.77
2018-04-23T18:47:25.622Z,98899.95
2018-04-23T18:49:53.256Z,98901.88
2018-04-23T18:52:20.882Z,98899.97
2018-04-23T18:54:48.470Z,98903.30
2018-04-23T18:57:16.045Z,98901.81
2018-04-23T18:59:43.821Z,98907.48
2018-04-23T19:02:11.378Z,98909.66
2018-04-23T19:04:38.946Z,98907.83
2018-04-23T19:07:06.648Z,98910.02
2018-04-23T19:09:34.233Z,98913.52
2018-04-23T19:12:02.012Z,98911.98
2018-04-23T19:14:29.830Z,98907.78
2018-04-23T19:16:57.649Z,98913.23
2018-04-23T19:19:25.468Z,98922.59
2018-04-23T19:21:53.059Z,98918.35
2018-04-23T19:24:20.641Z,98917.88
2018-04-23T19:26:48.214Z,98923.31
2018-04-23T19:29:15.777Z,98920.65
2018-04-23T19:31:43.515Z,98917.95
2018-04-23T19:34:11.375Z,98921.33
2018-04-23T19:36:39.093Z,98923.55
2018-04-23T19:39:06.708Z,98926.87
2018-04-23T19:41:34.276Z,98919.98
2018-04-23T19:44:01.938Z,98921.83
2018-04-23T19:46:29.576Z,98931.98
2018-04-23T19:48:57.384Z,98925.36
2018-04-23T19:51:24.968Z,98931.75
2018-04-23T19:53:52.720Z,98927.27
2018-04-23T19:56:20.294Z,98931.69
2018-04-23T19:58:48.156Z,98930.33
2018-04-23T20:01:15.725Z,98927.02
2018-04-23T20:03:43.493Z,98927.69
2018-04-23T20:06:11.101Z,98929.28
2018-04-23T20:08:38.726Z,98927.57
2018-04-23T20:11:06.546Z,98937.94
2018-04-23T20:13:34.128Z,98935.88
2018-04-23T20:16:01.783Z,98934.33
2018-04-23T20:18:29.359Z,98927.71
2018-04-23T20:20:57.000Z,98930.41
2018-04-23T20:23:24.717Z,98927.89
2018-04-23T20:25:52.388Z,98929.08
2018-04-23T20:28:20.063Z,98934.95
2018-04-23T20:30:47.791Z,98936.39
2018-04-23T20:33:15.424Z,98928.57
2018-04-23T20:35:43.229Z,98933.70
2018-04-23T20:38:10.788Z,98934.95
2018-04-23T20:40:38.564Z,98938.91
2018-04-23T20:43:06.129Z,98934.98
2018-04-23T20:45:33.817Z,98932.10
2018-04-23T20:48:01.376Z,98936.45
2018-04-23T20:50:29.239Z,98928.56
2018-04-23T20:52:56.812Z,98944.75
2018-04-23T20:55:24.388Z,98938.55
2018-04-23T20:57:52.191Z,98939.49
2018-04-23T21:00:19.910Z,98946.66
2018-04-23T21:02:47.509Z,98941.80
2018-04-23T21:05:15.202Z,98949.81
2018-04-23T21:07:42.821Z,98946.56
2018-04-23T21:10:10.582Z,98946.58
2018-04-23T21:12:38.294Z,98948.55
2018-04-23T21:15:05.853Z,98953.73
2018-04-23T21:17:33.637Z,98953.28
2018-04-23T21:20:01.456Z,98953.46
2018-04-23T21:22:29.233Z,98954.61
2018-04-23T21:24:57.305Z,98952.64
2018-04-23T21:27:25.979Z,98953.36
2018-04-23T21:29:53.688Z,98956.75
2018-04-23T21:32:21.261Z,98961.28
2018-04-23T21:34:48.826Z,98960.62
2018-04-23T21:37:16.396Z,98958.44
2018-04-23T21:39:43.959Z,98960.27
2018-04-23T21:42:11.580Z,98963.18
2018-04-23T21:44:39.341Z,98944.64
2018-04-23T21:47:07.053Z,98967.57
2018-04-23T21:49:34.613Z,98966.91
2018-04-23T21:52:02.189Z,98966.43
2018-04-23T21:54:30.015Z,98974.84
2018-04-23T21:56:57.572Z,98965.59
2018-04-23T21:59:25.351Z,98967.27
2018-04-23T22:01:52.988Z,98971.98
2018-04-23T22:04:20.561Z,98966.52
2018-04-23T22:06:48.273Z,98973.08
2018-04-23T22:09:15.812Z,98969.97
2018-04-23T22:11:43.385Z,98966.09
2018-04-23T22:14:10.962Z,98964.56
2018-04-23T22:16:38.644Z,98962.79
2018-04-23T22:19:06.207Z,98967.62
2018-04-23T22:21:34.015Z,98963.69
2018-04-23T22:24:01.580Z,98967.55
2018-04-23T22:26:29.349Z,98969.58
2018-04-23T22:28:56.958Z,98968.95
2018-04-23T22:31:24.564Z,98971.33
2018-04-23T22:33:52.404Z,98966.00
2018-04-23T22:36:19.942Z,98966.16
2018-04-23T22:38:47.740Z,98962.88
2018-04-23T22:41:15.308Z,98968.28
2018-04-23T22:43:42.925Z,98964.35
2018-04-23T22:46:10.841Z,98968.38
2018-04-23T22:48:38.404Z,98969.68
2018-04-23T22:51:06.036Z,98972.64
2018-04-23T22:53:33.596Z,98964.78
2018-04-23T22:56:01.148Z,98967.98
2018-04-23T22:58:28.700Z,98970.11
2018-04-23T23:00:56.257Z,98967.13
2018-04-23T23:03:23.834Z,98967.63
2018-04-23T23:05:51.637Z,98968.53
2018-04-23T23:08:19.253Z,98963.95
2018-04-23T23:10:46.821Z,98966.22
2018-04-23T23:13:14.573Z,98965.05
2018-04-23T23:15:42.142Z,98963.41
2018-04-23T23:18:09.716Z,98968.48
2018-04-23T23:20:37.544Z,98962.07
2018-04-23T23:23:05.365Z,98962.62
2018-04-23T23:25:32.924Z,98963.48
2018-04-23T23:28:00.489Z,98961.92
2018-04-23T23:30:28.045Z,98960.27
2018-04-23T23:32:55.836Z,98954.68
2018-04-23T23:35:23.943Z,98957.87
2018-04-23T23:37:51.552Z,98958.55
2018-04-23T23:40:19.127Z,98957.30
2018-04-23T23:42:46.679Z,98956.81
2018-04-23T23:45:14.485Z,98950.34
2018-04-23T23:47:42.045Z,98953.12
2018-04-23T23:50:09.657Z,98946.30
2018-04-23T23:52:37.323Z,98950.38
2018-04-23T23:55:05.231Z,98949.22
2018-04-23T23:57:32.788Z,98947.56
